createdAt,value
2022-10-18T00:00:19.295Z,59.76
2022-10-18T00:02:46.186Z,59.21
2022-10-18T00:05:12.973Z,58.28
2022-10-18T00:07:39.792Z,58.59
2022-10-18T00:10:07.288Z,57.87
2022-10-18T00:12:35.705Z,58.84
2022-10-18T00:15:03.470Z,58.93
2022-10-18T00:17:30.564Z,59.67
2022-10-18T00:19:57.605Z,59.78
2022-10-18T00:22:25.445Z,58.58
2022-10-18T00:24:52.553Z,57.89
2022-10-18T00:27:19.366Z,58.85
2022-10-18T00:29:46.344Z,59.03
2022-10-18T00:32:13.264Z,59.36
2022-10-18T00:34:40.414Z,59.37
2022-10-18T00:37:07.524Z,60.12
2022-10-18T00:39:34.714Z,60.61
2022-10-18T00:42:01.664Z,60.70
2022-10-18T00:44:28.417Z,60.40
2022-10-18T00:47:00.650Z,60.88
2022-10-18T00:49:34.410Z,60.93
2022-10-18T00:52:17.521Z,60.39
2022-10-18T00:54:46.336Z,60.26
2022-10-18T00:57:14.374Z,61.81
2022-10-18T00:59:42.928Z,62.05
2022-10-18T01:02:10.354Z,61.84
2022-10-18T01:04:37.405Z,62.39
2022-10-18T01:07:19.138Z,60.62
2022-10-18T01:09:58.814Z,61.23
2022-10-18T01:13:02.809Z,61.61
2022-10-18T01:15:58.061Z,61.43
2022-10-18T01:18:43.035Z,62.71
2022-10-18T01:21:17.492Z,61.92
2022-10-18T01:23:59.650Z,63.05
2022-10-18T01:26:41.625Z,61.68
2022-10-18T01:29:59.479Z,61.66
2022-10-18T01:32:35.016Z,60.22
2022-10-18T01:35:08.110Z,60.58
2022-10-18T01:37:36.603Z,59.30
2022-10-18T01:40:06.817Z,58.94
2022-10-18T01:42:34.737Z,59.59
2022-10-18T01:45:03.917Z,58.51
2022-10-18T01:47:31.327Z,59.06
2022-10-18T01:50:00.754Z,59.74
2022-10-18T01:52:27.795Z,60.50
2022-10-18T01:54:56.010Z,61.63
2022-10-18T01:57:41.229Z,61.99
2022-10-18T02:00:16.765Z,61.93
2022-10-18T02:02:48.350Z,62.01
2022-10-18T02:05:47.601Z,62.90
2022-10-18T02:08:42.879Z,62.92
2022-10-18T02:11:13.326Z,62.42
2022-10-18T02:13:44.998Z,61.74
2022-10-18T02:16:16.457Z,61.26
2022-10-18T02:18:52.043Z,61.31
2022-10-18T02:21:21.295Z,61.40
2022-10-18T02:23:49.402Z,61.11
2022-10-18T02:26:16.980Z,59.47
2022-10-18T02:28:44.855Z,60.40
2022-10-18T02:31:45.812Z,60.54
2022-10-18T02:34:36.587Z,60.35
2022-10-18T02:37:04.468Z,60.66
2022-10-18T02:39:35.826Z,60.60
2022-10-18T02:42:07.063Z,61.27
2022-10-18T02:44:34.579Z,62.07
2022-10-18T02:47:01.878Z,62.20
2022-10-18T02:49:28.777Z,62.73
2022-10-18T02:51:55.803Z,62.81
2022-10-18T02:54:23.440Z,63.22
2022-10-18T02:56:50.395Z,63.27
2022-10-18T02:59:17.286Z,63.10
2022-10-18T03:01:44.273Z,64.31
2022-10-18T03:04:11.089Z,63.24
2022-10-18T03:06:38.210Z,62.73
2022-10-18T03:09:06.401Z,62.69
2022-10-18T03:11:33.571Z,63.37
2022-10-18T03:14:00.425Z,64.44
2022-10-18T03:16:27.366Z,65.40
2022-10-18T03:18:54.157Z,65.05
2022-10-18T03:21:21.063Z,63.89
2022-10-18T03:23:47.898Z,63.38
2022-10-18T03:26:14.702Z,64.80
2022-10-18T03:28:41.536Z,63.86
2022-10-18T03:31:08.638Z,65.28
2022-10-18T03:33:36.123Z,65.33
2022-10-18T03:36:03.068Z,65.44
2022-10-18T03:38:29.903Z,65.60
2022-10-18T03:40:56.741Z,66.72
2022-10-18T03:43:23.572Z,64.88
2022-10-18T03:45:50.958Z,64.06
2022-10-18T03:48:17.758Z,63.87
2022-10-18T03:50:44.636Z,63.40
2022-10-18T03:53:11.679Z,64.74
2022-10-18T03:55:38.749Z,65.26
2022-10-18T03:58:05.577Z,66.51
2022-10-18T04:00:33.337Z,66.13
2022-10-18T04:03:00.555Z,64.68
2022-10-18T04:05:30.653Z,65.07
2022-10-18T04:07:58.005Z,65.69
2022-10-18T04:10:24.779Z,65.67
2022-10-18T04:12:51.632Z,64.81
2022-10-18T04:15:18.610Z,64.69
2022-10-18T04:17:45.470Z,65.87
2022-10-18T04:20:12.648Z,65.33
2022-10-18T04:22:39.488Z,66.34
2022-10-18T04:25:06.572Z,66.10
2022-10-18T04:27:33.608Z,65.13
2022-10-18T04:30:00.700Z,64.99
2022-10-18T04:32:29.450Z,65.73
2022-10-18T04:34:56.267Z,65.35
2022-10-18T04:37:23.407Z,64.16
2022-10-18T04:39:53.425Z,65.49
2022-10-18T04:42:22.097Z,65.15
2022-10-18T04:44:49.391Z,64.48
2022-10-18T04:47:16.958Z,65.22
2022-10-18T04:49:44.032Z,64.54
2022-10-18T04:52:11.280Z,63.84
2022-10-18T04:54:38.250Z,63.22
2022-10-18T04:57:05.166Z,63.39
2022-10-18T04:59:32.025Z,62.37
2022-10-18T05:01:58.981Z,62.47
2022-10-18T05:04:25.931Z,62.29
2022-10-18T05:06:52.743Z,60.68
2022-10-18T05:09:19.603Z,60.38
2022-10-18T05:11:46.556Z,60.83
2022-10-18T05:14:13.381Z,60.58
2022-10-18T05:16:40.167Z,59.61
2022-10-18T05:19:07.081Z,59.60
2022-10-18T05:21:33.956Z,58.79
2022-10-18T05:24:00.904Z,58.70
2022-10-18T05:26:27.862Z,58.73
2022-10-18T05:28:54.988Z,58.02
2022-10-18T05:31:22.036Z,58.47
2022-10-18T05:33:48.861Z,59.17
2022-10-18T05:36:15.823Z,58.01
2022-10-18T05:38:44.078Z,57.09
2022-10-18T05:41:11.731Z,57.81
2022-10-18T05:43:39.226Z,56.80
2022-10-18T05:46:11.886Z,55.39
2022-10-18T05:48:40.719Z,55.79
2022-10-18T05:51:07.682Z,56.16
2022-10-18T05:53:37.037Z,56.02
2022-10-18T05:56:05.732Z,55.05
2022-10-18T05:58:32.674Z,55.03
2022-10-18T06:01:04.695Z,55.83
2022-10-18T06:03:32.432Z,56.00
2022-10-18T06:06:04.427Z,54.80
2022-10-18T06:08:31.702Z,54.66
2022-10-18T06:10:58.952Z,53.33
2022-10-18T06:13:26.032Z,52.49
2022-10-18T06:15:57.228Z,52.43
2022-10-18T06:18:24.183Z,52.22
2022-10-18T06:20:57.002Z,52.12
2022-10-18T06:23:23.913Z,51.83
2022-10-18T06:25:50.731Z,50.91
2022-10-18T06:28:18.609Z,50.77
2022-10-18T06:30:45.448Z,49.67
2022-10-18T06:33:12.313Z,50.48
2022-10-18T06:35:39.095Z,50.32
2022-10-18T06:38:06.380Z,50.49
2022-10-18T06:40:38.055Z,50.32
2022-10-18T06:43:20.723Z,48.93
2022-10-18T06:45:48.561Z,48.82
2022-10-18T06:48:15.844Z,47.58
2022-10-18T06:50:43.004Z,48.39
2022-10-18T06:53:09.942Z,48.32
2022-10-18T06:55:36.734Z,47.04
2022-10-18T06:58:03.596Z,47.25
2022-10-18T07:00:30.413Z,45.99
2022-10-18T07:02:58.402Z,46.16
2022-10-18T07:05:25.456Z,45.93
2022-10-18T07:07:55.656Z,45.68
2022-10-18T07:10:25.467Z,44.77
2022-10-18T07:12:59.201Z,44.56
2022-10-18T07:15:38.668Z,43.62
2022-10-18T07:18:05.766Z,44.62
2022-10-18T07:20:32.581Z,44.06
2022-10-18T07:22:59.469Z,43.51
2022-10-18T07:25:28.484Z,43.75
2022-10-18T07:27:57.575Z,43.22
2022-10-18T07:30:24.418Z,43.61
2022-10-18T07:32:52.016Z,42.46
2022-10-18T07:35:18.948Z,43.44
2022-10-18T07:37:45.761Z,41.93
2022-10-18T07:40:13.147Z,41.04
2022-10-18T07:42:39.939Z,40.57
2022-10-18T07:45:07.115Z,39.75
2022-10-18T07:47:35.243Z,39.32
2022-10-18T07:50:02.462Z,39.11
2022-10-18T07:52:29.245Z,38.90
2022-10-18T07:54:56.049Z,38.78
2022-10-18T07:57:23.532Z,37.82
2022-10-18T07:59:56.387Z,37.61
2022-10-18T08:02:24.231Z,37.50
2022-10-18T08:04:51.116Z,38.12
2022-10-18T08:07:17.972Z,36.12
2022-10-18T08:09:44.807Z,35.49
2022-10-18T08:12:11.649Z,36.44
2022-10-18T08:14:38.648Z,36.58
2022-10-18T08:17:05.572Z,35.37
2022-10-18T08:19:32.517Z,35.30
2022-10-18T08:21:59.386Z,34.63
2022-10-18T08:24:26.309Z,33.92
2022-10-18T08:26:53.288Z,34.06
2022-10-18T08:29:25.872Z,34.77
2022-10-18T08:31:53.622Z,35.46
2022-10-18T08:34:20.563Z,34.30
2022-10-18T08:36:47.349Z,35.96
2022-10-18T08:39:14.218Z,36.01
2022-10-18T08:42:16.193Z,34.17
2022-10-18T08:44:48.274Z,34.25
2022-10-18T08:47:25.800Z,33.57
2022-10-18T08:50:02.600Z,33.46
2022-10-18T08:52:53.598Z,34.32
2022-10-18T08:55:20.353Z,33.03
2022-10-18T08:57:48.591Z,33.79
2022-10-18T09:00:29.557Z,33.33
2022-10-18T09:03:18.214Z,33.21
2022-10-18T09:06:13.097Z,34.05
2022-10-18T09:09:17.377Z,32.86
2022-10-18T09:11:44.248Z,31.90
2022-10-18T09:14:29.064Z,33.08
2022-10-18T09:17:01.747Z,33.15
2022-10-18T09:19:40.577Z,31.59
2022-10-18T09:22:18.211Z,32.12
2022-10-18T09:24:53.763Z,33.31
2022-10-18T09:27:28.922Z,33.03
2022-10-18T09:30:28.504Z,33.42
2022-10-18T09:33:26.128Z,33.01
2022-10-18T09:35:58.303Z,33.22
2022-10-18T09:38:31.076Z,33.82
2022-10-18T09:41:19.376Z,32.01
2022-10-18T09:43:58.674Z,32.50
2022-10-18T09:46:31.315Z,34.96
2022-10-18T09:49:27.351Z,33.59
2022-10-18T09:51:55.430Z,34.17
2022-10-18T09:54:28.162Z,35.55
2022-10-18T09:57:12.105Z,35.13
2022-10-18T09:59:48.052Z,36.03
2022-10-18T10:02:23.306Z,36.18
2022-10-18T10:04:51.818Z,35.66
2022-10-18T10:07:28.708Z,34.16
2022-10-18T10:10:04.998Z,34.56
2022-10-18T10:12:33.014Z,34.31
2022-10-18T10:15:29.546Z,32.63
2022-10-18T10:18:07.143Z,32.98
2022-10-18T10:20:42.241Z,34.58
2022-10-18T10:23:28.529Z,35.05
2022-10-18T10:26:20.469Z,32.85
2022-10-18T10:28:49.097Z,32.56
2022-10-18T10:31:19.138Z,33.64
2022-10-18T10:33:47.694Z,33.64
2022-10-18T10:36:21.321Z,32.63
2022-10-18T10:39:13.070Z,32.79
2022-10-18T10:41:41.565Z,33.06
2022-10-18T10:44:20.332Z,33.68
2022-10-18T10:46:49.698Z,32.93
2022-10-18T10:49:39.634Z,32.97
2022-10-18T10:52:08.826Z,31.42
2022-10-18T10:54:52.143Z,31.19
2022-10-18T10:57:28.000Z,32.29
2022-10-18T11:00:01.811Z,32.83
2022-10-18T11:02:34.977Z,32.62
2022-10-18T11:05:29.436Z,32.37
2022-10-18T11:08:01.532Z,31.72
2022-10-18T11:10:32.835Z,31.77
2022-10-18T11:13:32.800Z,32.41
2022-10-18T11:16:14.298Z,31.74
2022-10-18T11:18:46.771Z,31.73
2022-10-18T11:21:19.043Z,32.79
2022-10-18T11:23:46.503Z,32.06
2022-10-18T11:26:13.322Z,31.51
2022-10-18T11:28:43.083Z,32.12
2022-10-18T11:31:34.760Z,32.32
2022-10-18T11:34:09.814Z,32.76
2022-10-18T11:37:28.197Z,33.38
2022-10-18T11:40:16.070Z,31.18
2022-10-18T11:43:12.222Z,31.47
2022-10-18T11:45:44.867Z,30.59
2022-10-18T11:48:39.636Z,31.10
2022-10-18T11:51:09.268Z,31.41
2022-10-18T11:54:11.518Z,30.83
2022-10-18T11:56:47.112Z,31.11
2022-10-18T11:59:19.752Z,30.72
2022-10-18T12:02:14.764Z,32.88
2022-10-18T12:04:59.852Z,32.05
2022-10-18T12:07:40.922Z,31.64
2022-10-18T12:10:19.486Z,30.25
2022-10-18T12:12:58.521Z,31.35
2022-10-18T12:15:28.776Z,31.58
2022-10-18T12:18:03.448Z,31.25
2022-10-18T12:20:35.534Z,30.94
2022-10-18T12:23:57.178Z,31.15
2022-10-18T12:26:25.740Z,30.84
2022-10-18T12:29:20.460Z,31.94
2022-10-18T12:31:59.470Z,32.21
2022-10-18T12:34:31.975Z,32.91
2022-10-18T12:37:14.882Z,31.94
2022-10-18T12:40:05.548Z,32.05
2022-10-18T12:42:40.769Z,32.79
2022-10-18T12:45:13.427Z,33.08
2022-10-18T12:47:40.674Z,32.89
2022-10-18T12:50:22.273Z,33.05
2022-10-18T12:53:22.789Z,32.57
2022-10-18T12:55:51.860Z,33.46
2022-10-18T12:58:26.247Z,33.21
2022-10-18T13:00:58.367Z,33.81
2022-10-18T13:03:25.193Z,34.27
2022-10-18T13:05:56.842Z,33.98
2022-10-18T13:08:38.060Z,34.74
2022-10-18T13:11:10.817Z,33.79
2022-10-18T13:13:59.680Z,33.75
2022-10-18T13:16:50.751Z,34.70
2022-10-18T13:19:32.334Z,33.59
2022-10-18T13:22:28.532Z,33.89
2022-10-18T13:25:11.201Z,34.71
2022-10-18T13:27:37.957Z,33.82
2022-10-18T13:30:33.573Z,34.56
2022-10-18T13:33:18.974Z,34.87
2022-10-18T13:35:57.721Z,35.17
2022-10-18T13:38:30.611Z,34.24
2022-10-18T13:41:12.848Z,34.05
2022-10-18T13:44:07.284Z,35.05
2022-10-18T13:46:34.131Z,34.99
2022-10-18T13:49:44.547Z,34.50
2022-10-18T13:52:23.473Z,34.97
2022-10-18T13:55:27.918Z,35.57
2022-10-18T13:58:04.063Z,34.93
2022-10-18T14:00:58.750Z,34.36
2022-10-18T14:03:56.175Z,35.34
2022-10-18T14:06:38.859Z,35.12
2022-10-18T14:09:26.315Z,34.85
2022-10-18T14:12:17.223Z,35.89
2022-10-18T14:14:48.585Z,35.22
2022-10-18T14:17:40.855Z,36.06
2022-10-18T14:20:27.341Z,35.52
2022-10-18T14:23:29.013Z,35.59
2022-10-18T14:26:08.927Z,35.52
2022-10-18T14:28:54.969Z,36.09
2022-10-18T14:31:22.694Z,36.15
2022-10-18T14:33:57.681Z,36.86
2022-10-18T14:36:36.276Z,37.02
2022-10-18T14:39:06.095Z,37.08
2022-10-18T14:41:35.682Z,37.32
2022-10-18T14:44:11.693Z,37.59
2022-10-18T14:46:58.409Z,37.81
2022-10-18T14:49:25.877Z,38.09
2022-10-18T14:51:56.384Z,38.13
2022-10-18T14:54:32.145Z,38.08
2022-10-18T14:57:05.200Z,38.36
2022-10-18T14:59:57.292Z,38.37
2022-10-18T15:02:32.404Z,38.38
2022-10-18T15:05:07.761Z,38.80
2022-10-18T15:07:36.114Z,39.01
2022-10-18T15:10:05.410Z,39.10
2022-10-18T15:12:37.107Z,39.65
2022-10-18T15:15:27.684Z,40.23
2022-10-18T15:17:56.786Z,40.36
2022-10-18T15:20:32.181Z,40.04
2022-10-18T15:23:23.477Z,40.78
2022-10-18T15:25:53.352Z,41.33
2022-10-18T15:28:37.871Z,41.75
2022-10-18T15:31:07.218Z,42.03
2022-10-18T15:33:34.978Z,42.49
2022-10-18T15:36:11.495Z,42.48
2022-10-18T15:38:39.103Z,42.54
2022-10-18T15:41:39.615Z,42.70
2022-10-18T15:44:24.370Z,43.06
2022-10-18T15:47:21.817Z,41.85
2022-10-18T15:49:58.309Z,42.93
2022-10-18T15:52:39.500Z,43.18
2022-10-18T15:55:31.573Z,43.41
2022-10-18T15:58:06.401Z,44.50
2022-10-18T16:00:33.314Z,44.24
2022-10-18T16:03:00.148Z,43.96
2022-10-18T16:05:27.339Z,44.30
2022-10-18T16:07:54.484Z,45.19
2022-10-18T16:10:21.386Z,44.61
2022-10-18T16:12:48.380Z,44.81
2022-10-18T16:15:15.435Z,45.14
2022-10-18T16:17:42.355Z,45.43
2022-10-18T16:20:20.966Z,45.52
2022-10-18T16:22:48.068Z,45.92
2022-10-18T16:25:15.157Z,45.97
2022-10-18T16:27:42.056Z,47.10
2022-10-18T16:30:20.656Z,46.79
2022-10-18T16:32:48.968Z,46.67
2022-10-18T16:35:15.920Z,47.15
2022-10-18T16:37:43.375Z,47.34
2022-10-18T16:40:28.208Z,48.28
2022-10-18T16:42:55.080Z,47.94
2022-10-18T16:45:22.168Z,48.54
2022-10-18T16:47:49.013Z,48.41
2022-10-18T16:50:18.588Z,48.86
2022-10-18T16:52:45.572Z,48.12
2022-10-18T16:55:21.390Z,48.52
2022-10-18T16:57:49.055Z,48.40
2022-10-18T17:00:21.561Z,49.06
2022-10-18T17:02:49.893Z,49.10
2022-10-18T17:05:17.912Z,49.93
2022-10-18T17:07:45.575Z,50.05
2022-10-18T17:10:14.837Z,50.01
2022-10-18T17:12:42.155Z,50.01
2022-10-18T17:15:10.232Z,49.08
2022-10-18T17:17:37.940Z,49.79
2022-10-18T17:20:07.611Z,49.63
2022-10-18T17:22:34.970Z,50.18
2022-10-18T17:25:01.902Z,51.03
2022-10-18T17:27:28.968Z,51.24
2022-10-18T17:29:55.932Z,52.18
2022-10-18T17:32:22.909Z,51.73
2022-10-18T17:34:49.784Z,50.97
2022-10-18T17:37:16.655Z,51.32
2022-10-18T17:39:43.483Z,52.72
2022-10-18T17:42:10.340Z,52.00
2022-10-18T17:44:37.357Z,51.52
2022-10-18T17:47:04.219Z,52.48
2022-10-18T17:49:31.263Z,52.16
2022-10-18T17:51:58.097Z,52.32
2022-10-18T17:54:25.121Z,52.96
2022-10-18T17:56:53.922Z,52.83
2022-10-18T17:59:21.522Z,52.24
2022-10-18T18:01:48.593Z,52.03
2022-10-18T18:04:17.148Z,52.97
2022-10-18T18:06:45.548Z,52.63
2022-10-18T18:09:15.192Z,52.43
2022-10-18T18:11:44.069Z,52.77
2022-10-18T18:14:11.870Z,54.00
2022-10-18T18:16:42.182Z,52.88
2022-10-18T18:19:10.273Z,53.61
2022-10-18T18:21:41.080Z,54.16
2022-10-18T18:24:10.138Z,53.84
2022-10-18T18:26:38.579Z,54.76
2022-10-18T18:29:05.750Z,54.58
2022-10-18T18:31:38.759Z,55.23
2022-10-18T18:34:09.702Z,55.09
2022-10-18T18:36:36.571Z,55.29
2022-10-18T18:39:05.706Z,55.00
2022-10-18T18:41:33.317Z,54.87
2022-10-18T18:44:04.245Z,55.88
2022-10-18T18:46:36.688Z,55.79
2022-10-18T18:49:04.718Z,53.73
2022-10-18T18:51:33.247Z,54.42
2022-10-18T18:54:00.767Z,53.77
2022-10-18T18:56:29.183Z,53.93
2022-10-18T18:58:58.743Z,54.00
2022-10-18T19:01:28.676Z,54.94
2022-10-18T19:03:57.402Z,55.36
2022-10-18T19:06:30.288Z,54.68
2022-10-18T19:09:03.099Z,55.76
2022-10-18T19:11:33.694Z,56.21
2022-10-18T19:14:01.500Z,55.78
2022-10-18T19:16:32.380Z,56.65
2022-10-18T19:19:10.578Z,55.08
2022-10-18T19:21:40.460Z,55.44
2022-10-18T19:24:08.090Z,54.97
2022-10-18T19:27:02.649Z,55.26
2022-10-18T19:29:34.460Z,55.64
2022-10-18T19:32:04.157Z,55.26
2022-10-18T19:34:32.200Z,55.95
2022-10-18T19:36:59.139Z,55.00
2022-10-18T19:39:35.352Z,55.05
2022-10-18T19:42:05.100Z,54.83
2022-10-18T19:44:34.237Z,55.58
2022-10-18T19:47:01.196Z,56.27
2022-10-18T19:49:28.847Z,56.36
2022-10-18T19:51:56.664Z,56.01
2022-10-18T19:54:24.428Z,55.72
2022-10-18T19:56:51.723Z,54.86
2022-10-18T19:59:18.639Z,56.52
2022-10-18T20:01:46.257Z,57.08
2022-10-18T20:04:13.682Z,57.97
2022-10-18T20:06:41.186Z,56.87
2022-10-18T20:09:11.568Z,55.08
2022-10-18T20:11:40.983Z,54.89
2022-10-18T20:14:09.703Z,54.61
2022-10-18T20:16:36.631Z,54.73
2022-10-18T20:19:07.342Z,55.35
2022-10-18T20:21:36.129Z,55.06
2022-10-18T20:24:04.421Z,54.69
2022-10-18T20:26:31.574Z,54.90
2022-10-18T20:28:59.891Z,55.32
2022-10-18T20:31:33.155Z,56.49
2022-10-18T20:34:02.757Z,56.80
2022-10-18T20:36:31.592Z,56.36
2022-10-18T20:38:59.626Z,56.38
2022-10-18T20:41:32.128Z,56.86
2022-10-18T20:44:01.692Z,57.26
2022-10-18T20:46:34.406Z,57.00
2022-10-18T20:49:02.184Z,56.24
2022-10-18T20:51:29.060Z,57.44
2022-10-18T20:53:55.985Z,56.65
2022-10-18T20:56:26.698Z,56.69
2022-10-18T20:58:57.006Z,56.75
2022-10-18T21:01:31.410Z,56.60
2022-10-18T21:04:01.024Z,57.51
2022-10-18T21:06:33.155Z,57.74
2022-10-18T21:09:02.414Z,58.15
2022-10-18T21:11:30.591Z,59.81
2022-10-18T21:14:02.157Z,60.68
2022-10-18T21:16:34.166Z,61.33
2022-10-18T21:19:04.758Z,61.20
2022-10-18T21:21:32.398Z,60.43
2022-10-18T21:24:02.491Z,60.04
2022-10-18T21:26:32.376Z,59.32
2022-10-18T21:29:00.326Z,60.18
2022-10-18T21:31:32.989Z,61.09
2022-10-18T21:34:02.942Z,60.68
2022-10-18T21:36:35.634Z,61.28
2022-10-18T21:39:04.494Z,60.24
2022-10-18T21:41:31.915Z,60.17
2022-10-18T21:43:58.782Z,61.33
2022-10-18T21:46:27.062Z,61.29
2022-10-18T21:48:56.728Z,61.70
2022-10-18T21:51:25.915Z,61.40
2022-10-18T21:53:55.189Z,62.22
2022-10-18T21:56:25.638Z,61.78
2022-10-18T21:58:52.939Z,61.74
2022-10-18T22:01:25.587Z,61.65
2022-10-18T22:03:53.866Z,60.79
2022-10-18T22:06:22.149Z,61.28
2022-10-18T22:08:51.988Z,60.52
2022-10-18T22:11:21.493Z,60.94
2022-10-18T22:13:48.587Z,60.56
2022-10-18T22:16:17.069Z,60.11
2022-10-18T22:18:45.153Z,61.70
2022-10-18T22:21:14.549Z,62.26
2022-10-18T22:23:47.274Z,62.61
2022-10-18T22:26:16.620Z,62.40
2022-10-18T22:28:44.958Z,61.79
2022-10-18T22:31:21.180Z,62.23
2022-10-18T22:33:53.557Z,62.62
2022-10-18T22:36:20.542Z,62.62
2022-10-18T22:38:47.512Z,63.08
2022-10-18T22:41:14.448Z,63.26
2022-10-18T22:43:41.502Z,63.13
2022-10-18T22:46:10.870Z,63.98
2022-10-18T22:48:37.721Z,63.60
2022-10-18T22:51:05.508Z,63.75
2022-10-18T22:53:33.245Z,64.05
2022-10-18T22:56:00.261Z,64.16
2022-10-18T22:58:27.132Z,63.92
2022-10-18T23:01:12.159Z,64.00
2022-10-18T23:03:39.268Z,64.06
2022-10-18T23:06:17.245Z,63.86
2022-10-18T23:08:44.097Z,64.80
2022-10-18T23:11:11.004Z,64.46
2022-10-18T23:13:39.606Z,64.65
2022-10-18T23:16:07.343Z,64.66
2022-10-18T23:18:34.312Z,64.18
2022-10-18T23:21:09.393Z,64.02
2022-10-18T23:23:38.181Z,64.08
2022-10-18T23:26:07.713Z,63.97
2022-10-18T23:28:39.418Z,64.70
2022-10-18T23:31:14.666Z,64.27
2022-10-18T23:33:41.891Z,63.77
2022-10-18T23:36:09.592Z,63.15
2022-10-18T23:38:37.619Z,62.91
2022-10-18T23:41:08.843Z,63.68
2022-10-18T23:43:36.357Z,63.12
2022-10-18T23:46:03.609Z,63.24
2022-10-18T23:48:30.633Z,63.49
2022-10-18T23:50:57.595Z,63.66
2022-10-18T23:53:24.533Z,63.25
2022-10-18T23:55:54.485Z,63.00
2022-10-18T23:58:21.580Z,63.04
